»·PEaware :: N1718G KALW-8W5

N1718G :: KALW-8W5

FLIGHT INFORMATION

Flight Status: Arrived
Operator: Privately registered:
United States
More flights under this callsign
Pilot: Spencer M. (27733)
Aircraft: CESSNA T210 TURBO CENTURION
(T210)
More flights by this aircraft type
Origin: KALW Walla Walla Regl
United States
Destination: 8W5 Apex Airpark
United States
More flights between these airports :: More routes between these airports
Route: LYLES YKM V4 SEA WUMOX
File this flight plan on PilotEdge
Remarks: MYFLIGHTROUTE Alphabet Challenge Washington
Altitude:
(Current/Filed)
10,000ft
Speed:
(Current/Filed)
180kts
Departed: 02-May-20 08:35 PM
Arrived: 02-May-20 09:58 PM
Distance/Time
Traveled:
205nm/1:22
Distance/Time
To Go:
Arrived

Flight Plot

Page will automatically refresh every two minutes.

Flight plan parsing failed; only flown route is shown


Map Options




Map Legend


Flown Route
Filed Route
Departure Airport
Arrival Airport
Navaid (VOR, NDB)
Fix

Horizontal Profiles

Position Reports

Time Latitude Longitude Heading Altitude Ground
Speed
02-May-20 20:23 46.093884 -118.277858 126 1199ft 0kts
02-May-20 20:24 46.093884 -118.277858 126 1199ft 0kts
02-May-20 20:25 46.093884 -118.277858 126 1199ft 0kts
02-May-20 20:27 46.093884 -118.277858 126 1199ft 0kts
02-May-20 20:28 46.093884 -118.277858 126 1199ft 0kts
02-May-20 20:29 46.093884 -118.277858 126 1199ft 0kts
02-May-20 20:30 46.093756 -118.278731 316 1195ft 12kts
02-May-20 20:31 46.094713 -118.280231 307 1188ft 9kts
02-May-20 20:32 46.094945 -118.280746 307 1187ft 8kts
02-May-20 20:33 46.099105 -118.276396 48 1197ft 9kts
02-May-20 20:34 46.099224 -118.276455 267 1197ft 0kts
02-May-20 20:35 46.086354 -118.290922 216 1676ft 111kts
02-May-20 20:36 46.084113 -118.336521 274 2939ft 128kts
02-May-20 20:37 46.104559 -118.380257 309 3909ft 139kts
02-May-20 20:38 46.122697 -118.427030 281 4803ft 135kts
02-May-20 20:39 46.133303 -118.479933 279 5597ft 139kts
02-May-20 20:40 46.143794 -118.533545 278 6381ft 139kts
02-May-20 20:41 46.154282 -118.587319 278 7165ft 138kts
02-May-20 20:42 46.165312 -118.640322 280 7945ft 137kts
02-May-20 20:43 46.177242 -118.691494 279 8731ft 135kts
02-May-20 20:44 46.189102 -118.742387 279 9529ft 132kts
02-May-20 20:45 46.201166 -118.794663 280 9979ft 150kts
02-May-20 20:45 46.212796 -118.844356 280 9973ft 160kts
02-May-20 20:47 46.229274 -118.915485 279 9971ft 158kts
02-May-20 20:47 46.240833 -118.965567 278 9971ft 156kts
02-May-20 20:48 46.254383 -119.024509 278 9971ft 153kts
02-May-20 20:50 46.269876 -119.092218 278 9973ft 152kts
02-May-20 20:50 46.281076 -119.141278 278 9973ft 154kts
02-May-20 20:51 46.294497 -119.200016 279 9975ft 153kts
02-May-20 20:52 46.307879 -119.258784 279 9978ft 153kts
02-May-20 20:53 46.321218 -119.317489 279 9978ft 153kts
02-May-20 20:54 46.334512 -119.376170 279 9978ft 153kts
02-May-20 20:55 46.347778 -119.434913 279 9978ft 153kts
02-May-20 20:56 46.361002 -119.493632 279 9977ft 153kts
02-May-20 20:57 46.374193 -119.552366 279 9977ft 153kts
02-May-20 20:58 46.387361 -119.611159 279 9977ft 153kts
02-May-20 20:59 46.400488 -119.669952 279 10001ft 152kts
02-May-20 21:00 46.413436 -119.728066 279 10001ft 151kts
02-May-20 21:01 46.426334 -119.786108 278 9996ft 151kts
02-May-20 21:02 46.439318 -119.844671 278 9983ft 153kts
02-May-20 21:03 46.452359 -119.903708 277 9969ft 154kts
02-May-20 21:04 46.465504 -119.963384 276 9955ft 156kts
02-May-20 21:05 46.478777 -120.023848 276 9944ft 157kts
02-May-20 21:06 46.492045 -120.084482 276 9944ft 158kts
02-May-20 21:07 46.505332 -120.145344 276 9944ft 158kts
02-May-20 21:08 46.518532 -120.205973 276 9944ft 158kts
02-May-20 21:09 46.531739 -120.266809 276 9943ft 157kts
02-May-20 21:10 46.544889 -120.327556 276 9943ft 157kts
02-May-20 21:11 46.558018 -120.388390 276 9943ft 157kts
02-May-20 21:12 46.573424 -120.448522 289 9943ft 166kts
02-May-20 21:13 46.599157 -120.504959 292 9942ft 168kts
02-May-20 21:14 46.625730 -120.560805 292 9942ft 168kts
02-May-20 21:15 46.652344 -120.616605 292 9942ft 168kts
02-May-20 21:16 46.679048 -120.672696 291 9948ft 168kts
02-May-20 21:17 46.705381 -120.728172 293 9965ft 163kts
02-May-20 21:18 46.731041 -120.782196 293 9965ft 161kts
02-May-20 21:19 46.756439 -120.835872 293 9963ft 159kts
02-May-20 21:20 46.781529 -120.888981 294 9961ft 158kts
02-May-20 21:21 46.806351 -120.941620 294 9959ft 156kts
02-May-20 21:22 46.830963 -120.993960 295 9957ft 156kts
02-May-20 21:23 46.855506 -121.046236 297 9956ft 156kts
02-May-20 21:24 46.880187 -121.098869 298 9953ft 157kts
02-May-20 21:25 46.904879 -121.151569 298 9953ft 157kts
02-May-20 21:26 46.929853 -121.205021 298 9954ft 160kts
02-May-20 21:27 46.955062 -121.259011 298 9987ft 161kts
02-May-20 21:28 46.980502 -121.313671 298 10022ft 163kts
02-May-20 21:29 47.006256 -121.369121 297 10058ft 165kts
02-May-20 21:30 47.032341 -121.425397 297 10095ft 167kts
02-May-20 21:31 47.058664 -121.482312 297 10105ft 170kts
02-May-20 21:32 47.085381 -121.540186 297 10098ft 172kts
02-May-20 21:33 47.112401 -121.598842 296 10086ft 173kts
02-May-20 21:34 47.139606 -121.658031 295 10081ft 175kts
02-May-20 21:35 47.166956 -121.717682 295 10078ft 176kts
02-May-20 21:36 47.194324 -121.777485 295 10082ft 176kts
02-May-20 21:37 47.221500 -121.836997 296 10088ft 174kts
02-May-20 21:38 47.248522 -121.896295 296 10091ft 173kts
02-May-20 21:39 47.275408 -121.955412 296 10088ft 174kts
02-May-20 21:40 47.302432 -122.014971 295 10080ft 175kts
02-May-20 21:41 47.329515 -122.074738 295 10071ft 174kts
02-May-20 21:42 47.356213 -122.133818 295 10063ft 171kts
02-May-20 21:43 47.382432 -122.192039 295 10062ft 170kts
02-May-20 21:44 47.408702 -122.250450 294 10061ft 170kts
02-May-20 21:45 47.434496 -122.308046 293 10055ft 161kts
02-May-20 21:46 47.458761 -122.366489 293 9385ft 174kts
02-May-20 21:47 47.483944 -122.427201 293 8453ft 171kts
02-May-20 21:48 47.508534 -122.486764 293 7445ft 168kts
02-May-20 21:49 47.533210 -122.545254 295 6442ft 167kts
02-May-20 21:50 47.558142 -122.602818 295 5429ft 164kts
02-May-20 21:51 47.582142 -122.659433 291 4436ft 157kts
02-May-20 21:52 47.611425 -122.706822 328 3278ft 152kts
02-May-20 21:53 47.650502 -122.713217 5 2530ft 128kts
02-May-20 21:54 47.679294 -122.710986 324 1952ft 83kts
02-May-20 21:55 47.683346 -122.731987 176 1246ft 54kts
02-May-20 21:56 47.669080 -122.730005 188 892ft 50kts
02-May-20 21:57 47.655415 -122.733374 188 506ft 39kts
02-May-20 21:58 47.654236 -122.733359 7 497ft 0kts

Navigation Log

Ident Type
Flight plan parsing failed, navigation log unavailable